Time;durP1;ratioP1;P1;durP2;ratioP2;P2;SDS_P1;SDS_P2;PMS_P1;PMS_P2;Temp;Humidity;BMP_temperature;BMP_pressure;BME280_temperature;BME280_humidity;BME280_pressure;Samples;Min_cycle;Max_cycle;Signal;HPM_P1;HPM_P2
2023/07/11 00:02:23;;;;;;;8.85;4.90;;;31.20;99.90;;;;;;5032241;28;20386;-58
2023/07/11 00:04:49;;;;;;;7.90;5.13;;;31.20;99.90;;;;;;5031782;28;20025;-59
2023/07/11 00:07:14;;;;;;;10.63;5.45;;;31.20;99.90;;;;;;5030762;28;20034;-58
2023/07/11 00:09:40;;;;;;;7.53;4.90;;;31.30;99.90;;;;;;5031074;28;20060;-58
2023/07/11 00:12:07;;;;;;;8.02;5.13;;;31.20;99.90;;;;;;5026915;28;20029;-58
2023/07/11 00:14:36;;;;;;;9.52;5.10;;;31.30;99.90;;;;;;5016902;28;20037;-58
2023/07/11 00:17:03;;;;;;;9.07;4.78;;;31.20;99.90;;;;;;5031434;28;20116;-58
2023/07/11 00:19:31;;;;;;;7.15;5.40;;;31.20;99.90;;;;;;5030888;28;20056;-59
2023/07/11 00:21:57;;;;;;;8.48;4.65;;;31.10;99.90;;;;;;5032712;28;20036;-58
2023/07/11 00:24:22;;;;;;;8.82;5.18;;;31.10;99.90;;;;;;5031765;28;20368;-58
2023/07/11 00:26:48;;;;;;;6.68;4.65;;;31.30;99.90;;;;;;5014338;28;20026;-58
2023/07/11 00:29:20;;;;;;;7.43;5.22;;;31.10;99.90;;;;;;5022799;28;20039;-58
2023/07/11 00:31:46;;;;;;;7.90;5.28;;;31.00;99.90;;;;;;5027100;28;20036;-58
2023/07/11 00:34:12;;;;;;;8.43;5.45;;;30.90;99.90;;;;;;5032944;28;20038;-58
2023/07/11 00:36:38;;;;;;;8.75;4.80;;;31.00;99.90;;;;;;5035081;28;20021;-59
2023/07/11 00:39:04;;;;;;;8.93;5.10;;;30.90;99.90;;;;;;5033622;28;20028;-59
2023/07/11 00:41:31;;;;;;;9.68;5.72;;;30.90;99.90;;;;;;5035415;28;20053;-59
2023/07/11 00:43:56;;;;;;;9.68;5.07;;;30.90;99.90;;;;;;5022446;28;20032;-59
2023/07/11 00:46:22;;;;;;;7.25;5.03;;;30.90;99.90;;;;;;5035601;28;20021;-59
2023/07/11 00:48:53;;;;;;;11.25;5.38;;;30.80;99.90;;;;;;5035536;28;20029;-59
2023/07/11 00:51:28;;;;;;;9.57;5.93;;;30.80;99.90;;;;;;5036301;28;20021;-59
2023/07/11 00:53:54;;;;;;;8.90;5.25;;;30.90;99.90;;;;;;5034603;28;20105;-59
2023/07/11 00:56:25;;;;;;;8.50;4.93;;;31.00;99.90;;;;;;5030594;28;20057;-57
2023/07/11 00:58:52;;;;;;;7.45;4.53;;;30.90;99.90;;;;;;5033308;28;20025;-59
2023/07/11 01:01:19;;;;;;;9.00;5.53;;;31.00;99.90;;;;;;5035015;28;20021;-59
2023/07/11 01:03:46;;;;;;;10.63;5.93;;;30.90;99.90;;;;;;5034017;28;20495;-59
2023/07/11 01:06:16;;;;;;;7.68;5.50;;;30.90;99.90;;;;;;5033732;28;20038;-59
2023/07/11 01:08:44;;;;;;;9.10;5.25;;;30.80;99.90;;;;;;5029773;28;20033;-59
2023/07/11 01:11:10;;;;;;;8.15;5.05;;;30.80;99.90;;;;;;5032639;28;20021;-59
2023/07/11 01:13:36;;;;;;;7.22;5.20;;;30.90;99.90;;;;;;5031211;28;20445;-59
2023/07/11 01:16:01;;;;;;;7.80;5.68;;;30.80;99.90;;;;;;5033479;28;20022;-59
2023/07/11 01:18:27;;;;;;;11.70;5.32;;;30.80;99.90;;;;;;5034693;28;20040;-59
2023/07/11 01:20:54;;;;;;;6.75;5.60;;;30.90;99.90;;;;;;5033873;28;20022;-59
2023/07/11 01:23:20;;;;;;;7.97;4.95;;;30.90;99.90;;;;;;5034840;28;20040;-59
2023/07/11 01:25:46;;;;;;;7.13;5.28;;;30.80;99.90;;;;;;5033885;28;20041;-59
2023/07/11 01:28:13;;;;;;;9.63;5.93;;;30.90;99.90;;;;;;5031232;28;20510;-59
2023/07/11 01:30:39;;;;;;;7.25;5.53;;;30.80;99.90;;;;;;5019164;28;20480;-59
2023/07/11 01:33:04;;;;;;;8.93;5.47;;;30.80;99.90;;;;;;5016757;28;20513;-59
2023/07/11 01:35:30;;;;;;;9.60;5.32;;;30.80;99.90;;;;;;5033810;28;20065;-59
2023/07/11 01:37:56;;;;;;;12.05;6.80;;;30.90;99.90;;;;;;5034983;28;20033;-59
2023/07/11 01:40:22;;;;;;;12.90;6.50;;;30.90;99.90;;;;;;5031671;28;20037;-59
2023/07/11 01:42:48;;;;;;;16.33;6.70;;;30.90;99.90;;;;;;5033054;28;20045;-59
2023/07/11 01:45:15;;;;;;;10.27;5.75;;;30.80;99.90;;;;;;5033917;28;20537;-59
2023/07/11 01:47:40;;;;;;;9.48;5.65;;;30.80;99.90;;;;;;5033764;28;20499;-59
2023/07/11 01:50:07;;;;;;;10.25;5.65;;;30.80;99.90;;;;;;5030842;28;20029;-59
2023/07/11 01:52:33;;;;;;;10.90;6.10;;;30.80;99.90;;;;;;5032731;28;20083;-59
2023/07/11 01:54:58;;;;;;;8.55;5.68;;;30.70;99.90;;;;;;5033410;28;20025;-59
2023/07/11 01:57:24;;;;;;;11.85;6.20;;;30.60;99.90;;;;;;5033856;28;20091;-59
2023/07/11 01:59:50;;;;;;;8.57;5.60;;;30.50;99.90;;;;;;5033965;28;20079;-59
2023/07/11 02:02:16;;;;;;;7.30;5.50;;;30.50;99.90;;;;;;5034745;28;20079;-59
2023/07/11 02:04:44;;;;;;;8.93;5.70;;;30.50;99.90;;;;;;5033578;28;20467;-58
2023/07/11 02:07:10;;;;;;;7.10;5.35;;;30.60;99.90;;;;;;5033390;28;20025;-59
2023/07/11 02:09:35;;;;;;;8.32;5.53;;;30.60;99.90;;;;;;5034100;28;20029;-59
2023/07/11 02:12:02;;;;;;;10.48;5.68;;;30.50;99.90;;;;;;5032083;28;20038;-59
2023/07/11 02:14:28;;;;;;;9.90;5.60;;;30.60;99.90;;;;;;5034873;28;20030;-59
2023/07/11 02:16:54;;;;;;;9.98;5.25;;;30.50;99.90;;;;;;5031975;28;20022;-59
2023/07/11 02:19:22;;;;;;;11.40;5.95;;;30.50;99.90;;;;;;5027349;28;20525;-59
2023/07/11 02:21:48;;;;;;;10.13;5.38;;;30.40;99.90;;;;;;5026471;28;21884;-59
2023/07/11 02:24:16;;;;;;;8.80;5.35;;;30.50;99.90;;;;;;5033065;28;20111;-59
2023/07/11 02:26:45;;;;;;;9.90;5.32;;;30.50;99.90;;;;;;5032457;28;20101;-59
2023/07/11 02:29:12;;;;;;;6.40;4.93;;;30.50;99.90;;;;;;5034314;28;20033;-59
2023/07/11 02:31:38;;;;;;;6.88;5.05;;;30.50;99.90;;;;;;5033702;28;20033;-59
2023/07/11 02:34:03;;;;;;;8.57;7.10;;;30.50;99.90;;;;;;5034048;28;20029;-59
2023/07/11 02:36:30;;;;;;;8.73;6.68;;;30.50;99.90;;;;;;5033377;28;20028;-59
2023/07/11 02:38:56;;;;;;;9.48;7.97;;;30.50;99.90;;;;;;5033331;28;20037;-59
2023/07/11 02:41:22;;;;;;;10.63;8.27;;;30.40;99.90;;;;;;5034076;28;20026;-59
2023/07/11 02:43:48;;;;;;;10.13;8.75;;;30.30;99.90;;;;;;5033126;28;20047;-59
2023/07/11 02:46:15;;;;;;;11.57;8.10;;;30.40;99.90;;;;;;5032571;28;20482;-59
2023/07/11 02:48:42;;;;;;;13.98;9.13;;;30.50;99.90;;;;;;5032029;28;20096;-59
2023/07/11 02:51:07;;;;;;;12.93;9.10;;;30.50;99.90;;;;;;5029950;28;20057;-59
2023/07/11 02:53:33;;;;;;;10.73;9.27;;;30.50;99.90;;;;;;5032941;28;20064;-59
2023/07/11 02:55:59;;;;;;;9.65;8.77;;;30.50;99.90;;;;;;5032178;28;20033;-59
2023/07/11 02:58:24;;;;;;;12.07;9.35;;;30.50;99.90;;;;;;5033052;28;20052;-59
2023/07/11 03:00:54;;;;;;;10.48;9.48;;;30.40;99.90;;;;;;5033017;28;20030;-59
2023/07/11 03:03:35;;;;;;;10.32;9.38;;;30.50;99.90;;;;;;5032044;28;20033;-59
2023/07/11 03:06:00;;;;;;;12.75;11.55;;;30.40;99.90;;;;;;5032558;28;20033;-59
2023/07/11 03:08:26;;;;;;;15.80;13.73;;;30.50;99.90;;;;;;5031785;28;20040;-59
2023/07/11 03:10:56;;;;;;;15.57;14.07;;;30.30;99.90;;;;;;5032614;28;20029;-59
2023/07/11 03:13:21;;;;;;;13.80;12.40;;;30.40;99.90;;;;;;5033520;28;20411;-59
2023/07/11 03:15:47;;;;;;;17.55;14.57;;;30.40;99.90;;;;;;5032822;28;20025;-59
2023/07/11 03:18:13;;;;;;;15.63;14.10;;;30.50;99.90;;;;;;5033546;28;20471;-59
2023/07/11 03:20:41;;;;;;;19.25;17.40;;;30.50;99.90;;;;;;5031307;28;20029;-59
2023/07/11 03:23:09;;;;;;;20.10;18.27;;;30.40;99.90;;;;;;5031508;28;20037;-59
2023/07/11 03:25:35;;;;;;;18.80;16.88;;;30.40;99.90;;;;;;5031209;28;20029;-59
2023/07/11 03:28:00;;;;;;;21.83;19.65;;;30.30;99.90;;;;;;5031030;28;20065;-59
2023/07/11 03:30:26;;;;;;;19.05;17.27;;;30.40;99.90;;;;;;5033288;28;20126;-59
2023/07/11 03:32:52;;;;;;;18.88;17.08;;;30.40;99.90;;;;;;5032378;28;20559;-59
2023/07/11 03:35:18;;;;;;;24.30;21.77;;;30.50;99.90;;;;;;5031787;28;20112;-59
2023/07/11 03:37:43;;;;;;;21.95;19.77;;;30.40;99.90;;;;;;5031074;28;20112;-59
2023/07/11 03:40:10;;;;;;;25.88;23.38;;;30.40;99.90;;;;;;5031849;28;20529;-59
2023/07/11 03:42:35;;;;;;;25.92;23.63;;;30.40;99.90;;;;;;5032374;28;20119;-59
2023/07/11 03:45:01;;;;;;;26.23;23.38;;;30.30;99.90;;;;;;5033564;28;20021;-59
2023/07/11 03:47:27;;;;;;;24.50;22.20;;;30.00;99.90;;;;;;5029944;28;20029;-59
2023/07/11 03:49:52;;;;;;;24.42;21.67;;;29.90;99.90;;;;;;5032400;28;20030;-59
2023/07/11 03:52:18;;;;;;;25.42;22.63;;;29.80;99.90;;;;;;5032274;28;20463;-59
2023/07/11 03:54:44;;;;;;;26.98;24.52;;;29.90;99.90;;;;;;5032888;28;20360;-59
2023/07/11 03:57:09;;;;;;;24.88;22.38;;;29.80;99.90;;;;;;5031930;28;20095;-59
2023/07/11 03:59:35;;;;;;;27.70;25.05;;;29.60;99.90;;;;;;5031465;28;20095;-59
2023/07/11 04:02:00;;;;;;;27.90;25.35;;;29.60;99.90;;;;;;5032844;28;20098;-59
2023/07/11 04:04:26;;;;;;;27.27;24.60;;;29.60;99.90;;;;;;5030896;28;20061;-59
2023/07/11 04:06:52;;;;;;;28.48;25.85;;;29.80;99.90;;;;;;5031608;28;20026;-59
2023/07/11 04:09:18;;;;;;;27.50;24.83;;;29.70;99.90;;;;;;5033220;28;20025;-59
2023/07/11 04:11:43;;;;;;;28.15;25.33;;;29.60;99.90;;;;;;5035095;28;20032;-59
2023/07/11 04:14:10;;;;;;;26.73;24.30;;;29.60;99.90;;;;;;5036850;28;20021;-59
2023/07/11 04:16:36;;;;;;;26.60;23.98;;;29.70;99.90;;;;;;5035992;28;20083;-59
2023/07/11 04:19:02;;;;;;;27.80;24.95;;;29.60;99.90;;;;;;5035465;28;20422;-59
2023/07/11 04:21:28;;;;;;;27.55;25.17;;;29.60;99.90;;;;;;5035172;28;20082;-59
2023/07/11 04:23:53;;;;;;;25.23;22.67;;;29.50;99.90;;;;;;5036565;28;20158;-59
2023/07/11 04:26:19;;;;;;;25.67;23.35;;;29.50;99.90;;;;;;5035366;28;20038;-59
2023/07/11 04:28:45;;;;;;;26.17;23.65;;;29.50;99.90;;;;;;5033820;28;20478;-59
2023/07/11 04:31:10;;;;;;;25.77;23.45;;;29.40;99.90;;;;;;5035908;28;20060;-59
2023/07/11 04:33:36;;;;;;;25.08;22.67;;;29.50;99.90;;;;;;5036816;28;20466;-59
2023/07/11 04:36:10;;;;;;;25.45;22.80;;;29.40;99.90;;;;;;5034658;28;20356;-59
2023/07/11 04:38:36;;;;;;;25.05;22.58;;;29.50;99.90;;;;;;5034576;28;20026;-59
2023/07/11 04:41:03;;;;;;;24.95;22.40;;;29.40;99.90;;;;;;5035353;28;20037;-59
2023/07/11 04:43:30;;;;;;;25.02;22.40;;;29.30;99.90;;;;;;5035824;28;20029;-59
2023/07/11 04:45:57;;;;;;;25.92;23.25;;;29.30;99.90;;;;;;5033329;28;20025;-59
2023/07/11 04:48:22;;;;;;;23.70;21.27;;;29.40;99.90;;;;;;5035606;28;20033;-59
2023/07/11 04:50:48;;;;;;;24.65;22.10;;;29.40;99.90;;;;;;5036024;28;20108;-59
2023/07/11 04:53:14;;;;;;;24.70;22.30;;;29.40;99.90;;;;;;5029240;28;20026;-59
2023/07/11 04:55:39;;;;;;;27.15;24.45;;;29.30;99.90;;;;;;5032268;28;20033;-59
2023/07/11 04:58:05;;;;;;;24.42;22.02;;;29.40;99.90;;;;;;5021989;28;20045;-59
2023/07/11 05:00:30;;;;;;;29.85;22.65;;;29.40;99.90;;;;;;5035277;28;20053;-58
2023/07/11 05:02:56;;;;;;;26.60;23.90;;;29.30;99.90;;;;;;5035892;28;20176;-59
2023/07/11 05:05:22;;;;;;;26.25;23.52;;;29.30;99.90;;;;;;5034958;28;20175;-58
2023/07/11 05:07:48;;;;;;;25.65;23.13;;;29.20;99.90;;;;;;5034968;28;20037;-58
2023/07/11 05:10:14;;;;;;;26.35;23.20;;;29.30;99.90;;;;;;5035730;28;20390;-58
2023/07/11 05:12:40;;;;;;;25.75;23.15;;;29.30;99.90;;;;;;5034821;28;20033;-58
2023/07/11 05:15:07;;;;;;;27.35;24.55;;;29.30;99.90;;;;;;5034125;28;20333;-59
2023/07/11 05:17:32;;;;;;;27.10;24.27;;;29.30;99.90;;;;;;5035888;28;20053;-59
2023/07/11 05:19:58;;;;;;;24.73;22.50;;;29.30;99.90;;;;;;5034336;28;20092;-58
2023/07/11 05:22:26;;;;;;;25.83;22.17;;;29.40;99.90;;;;;;5035262;28;20457;-58
2023/07/11 05:24:52;;;;;;;23.98;21.58;;;29.40;99.90;;;;;;5033787;28;20030;-59
2023/07/11 05:27:18;;;;;;;24.75;22.23;;;29.40;99.90;;;;;;5034103;28;20033;-58
2023/07/11 05:29:44;;;;;;;21.63;19.52;;;29.40;99.90;;;;;;5035562;28;20040;-58
2023/07/11 05:32:10;;;;;;;24.33;22.02;;;29.40;99.90;;;;;;5034239;28;20045;-58
2023/07/11 05:34:35;;;;;;;23.60;21.33;;;29.30;99.90;;;;;;5035245;28;20128;-58
2023/07/11 05:37:01;;;;;;;22.17;19.83;;;29.40;99.90;;;;;;5033299;28;20107;-58
2023/07/11 05:39:27;;;;;;;23.02;20.73;;;29.40;99.90;;;;;;5021241;28;20025;-58
2023/07/11 05:41:52;;;;;;;21.77;19.50;;;29.40;99.90;;;;;;5033110;28;20079;-58
2023/07/11 05:44:18;;;;;;;22.75;19.45;;;29.40;99.90;;;;;;5035218;28;20033;-58
2023/07/11 05:46:44;;;;;;;22.27;20.23;;;29.30;99.90;;;;;;5032134;28;20383;-58
2023/07/11 05:49:09;;;;;;;21.10;19.10;;;29.40;99.90;;;;;;5035055;28;20079;-58
2023/07/11 05:51:35;;;;;;;21.95;19.67;;;29.40;99.90;;;;;;5033888;28;20033;-58
2023/07/11 05:54:02;;;;;;;28.05;21.38;;;29.50;99.90;;;;;;5034938;28;20034;-58
2023/07/11 05:56:27;;;;;;;22.17;19.52;;;29.50;99.90;;;;;;5033566;28;20487;-59
2023/07/11 05:58:54;;;;;;;23.38;20.73;;;29.50;99.90;;;;;;5022890;28;20049;-58
2023/07/11 06:01:25;;;;;;;25.88;20.75;;;29.50;99.90;;;;;;5030691;28;20024;-58
2023/07/11 06:04:01;;;;;;;23.05;20.55;;;29.50;99.90;;;;;;5034752;28;20044;-58
2023/07/11 06:06:27;;;;;;;23.30;20.23;;;29.60;99.90;;;;;;5031140;28;20038;-58
2023/07/11 06:08:52;;;;;;;26.60;21.35;;;29.60;99.90;;;;;;5034939;28;20048;-59
2023/07/11 06:11:18;;;;;;;22.85;20.35;;;29.60;99.90;;;;;;5033208;28;20025;-59
2023/07/11 06:13:43;;;;;;;24.23;21.83;;;29.60;99.90;;;;;;5034828;28;20043;-58
2023/07/11 06:16:16;;;;;;;23.25;20.85;;;29.50;99.90;;;;;;5033077;28;20029;-59
2023/07/11 06:18:43;;;;;;;20.23;18.10;;;29.60;99.90;;;;;;5032101;28;20120;-58
2023/07/11 06:21:10;;;;;;;21.00;19.00;;;29.60;99.90;;;;;;5027108;28;20257;-58
2023/07/11 06:23:36;;;;;;;21.42;19.27;;;29.50;99.90;;;;;;5033525;28;20091;-58
2023/07/11 06:26:02;;;;;;;20.00;18.02;;;29.60;99.90;;;;;;5034435;28;20026;-58
2023/07/11 06:28:28;;;;;;;18.52;16.55;;;29.70;99.90;;;;;;5030362;28;20041;-58
2023/07/11 06:30:58;;;;;;;19.88;17.73;;;29.70;99.90;;;;;;5033118;28;20027;-58
2023/07/11 06:33:25;;;;;;;22.13;18.85;;;29.70;99.90;;;;;;5033376;28;20028;-58
2023/07/11 06:35:51;;;;;;;22.00;18.70;;;29.70;99.90;;;;;;5032489;28;20348;-58
2023/07/11 06:38:18;;;;;;;17.83;16.13;;;29.70;99.90;;;;;;5027139;28;20033;-58
2023/07/11 06:40:48;;;;;;;21.58;16.33;;;29.60;99.90;;;;;;5029755;28;20499;-58
2023/07/11 06:43:14;;;;;;;19.92;17.25;;;30.00;99.90;;;;;;5037137;28;20037;-58
2023/07/11 06:45:40;;;;;;;18.90;16.10;;;30.00;99.90;;;;;;5033316;28;20092;-58
2023/07/11 06:48:05;;;;;;;16.58;12.07;;;30.10;99.90;;;;;;5030453;28;20022;-58
2023/07/11 06:50:32;;;;;;;16.23;13.13;;;30.50;99.90;;;;;;5034482;28;20467;-59
2023/07/11 06:52:57;;;;;;;17.50;13.85;;;31.00;99.90;;;;;;5022113;28;20022;-58
2023/07/11 06:55:23;;;;;;;22.20;17.10;;;30.80;99.90;;;;;;5036466;28;20021;-58
2023/07/11 06:57:49;;;;;;;15.75;12.93;;;30.50;99.90;;;;;;5031472;28;20376;-59
2023/07/11 07:00:15;;;;;;;20.75;18.35;;;31.10;99.90;;;;;;5032259;28;20029;-59
2023/07/11 07:02:41;;;;;;;12.23;11.02;;;30.80;99.90;;;;;;5032343;28;20069;-66
2023/07/11 07:05:07;;;;;;;22.75;15.10;;;31.00;99.90;;;;;;5026195;28;20053;-64
2023/07/11 07:07:33;;;;;;;16.45;14.35;;;31.20;99.90;;;;;;5032119;28;20054;-64
2023/07/11 07:10:00;;;;;;;18.33;12.82;;;31.20;99.90;;;;;;5030842;28;20072;-63
2023/07/11 07:12:25;;;;;;;15.80;11.63;;;31.60;99.90;;;;;;5028994;28;20029;-65
2023/07/11 07:14:51;;;;;;;14.27;12.80;;;31.80;99.90;;;;;;5021565;28;20337;-64
2023/07/11 07:17:17;;;;;;;15.25;12.55;;;32.00;99.90;;;;;;5031955;28;20025;-64
2023/07/11 07:19:48;;;;;;;13.80;11.98;;;32.30;99.90;;;;;;5029811;28;20043;-63
2023/07/11 07:22:15;;;;;;;12.65;11.32;;;32.50;99.90;;;;;;5028331;28;20029;-62
2023/07/11 07:24:41;;;;;;;13.52;11.80;;;32.20;99.90;;;;;;5031154;28;20030;-61
2023/07/11 07:27:06;;;;;;;16.88;14.35;;;32.70;99.90;;;;;;5031695;28;20033;-62
2023/07/11 07:29:32;;;;;;;13.57;10.55;;;32.70;99.90;;;;;;5030386;28;20080;-61
2023/07/11 07:31:59;;;;;;;17.50;12.82;;;32.50;99.90;;;;;;5030715;28;20036;-62
2023/07/11 07:34:25;;;;;;;16.70;14.43;;;32.40;99.90;;;;;;5028846;28;20033;-66
2023/07/11 07:36:50;;;;;;;13.57;11.18;;;32.40;99.90;;;;;;5029208;28;20070;-62
2023/07/11 07:39:16;;;;;;;16.48;12.98;;;32.40;99.90;;;;;;5030396;28;20036;-64
2023/07/11 07:41:42;;;;;;;14.30;12.82;;;32.20;99.90;;;;;;5026943;28;20114;-66
2023/07/11 07:44:08;;;;;;;16.23;14.55;;;32.00;99.90;;;;;;5028115;28;20103;-66
2023/07/11 07:46:34;;;;;;;15.65;12.18;;;32.00;99.90;;;;;;5030800;28;20467;-69
2023/07/11 07:48:59;;;;;;;18.48;16.55;;;32.20;99.90;;;;;;5033449;28;20041;-65
2023/07/11 07:51:25;;;;;;;15.82;14.23;;;31.60;99.90;;;;;;5031760;28;20037;-63
2023/07/11 07:53:51;;;;;;;15.07;12.93;;;32.00;99.90;;;;;;5029017;28;20079;-59
2023/07/11 07:56:19;;;;;;;15.75;14.13;;;32.10;99.90;;;;;;5027027;28;20033;-63
2023/07/11 07:58:46;;;;;;;17.77;14.32;;;32.20;99.90;;;;;;5052814;28;20103;-62
2023/07/11 08:01:14;;;;;;;17.83;12.93;;;32.40;99.90;;;;;;5035112;28;20030;-65
2023/07/11 08:03:40;;;;;;;17.48;14.65;;;32.30;99.90;;;;;;5024967;28;20095;-64
2023/07/11 08:06:07;;;;;;;17.08;15.23;;;32.00;99.90;;;;;;5029127;28;20028;-73
2023/07/11 08:08:33;;;;;;;21.42;12.52;;;31.80;99.90;;;;;;5028375;28;20033;-80
2023/07/11 08:11:03;;;;;;;17.00;14.40;;;32.00;99.90;;;;;;5035531;28;20064;-78
2023/07/11 08:13:29;;;;;;;13.70;11.65;;;31.80;99.90;;;;;;5032307;28;20033;-72
2023/07/11 08:15:55;;;;;;;13.35;11.27;;;32.70;99.90;;;;;;5030064;28;20034;-68
2023/07/11 08:18:21;;;;;;;14.07;11.95;;;32.60;99.90;;;;;;5032961;28;20021;-67
2023/07/11 08:20:47;;;;;;;16.02;13.93;;;33.20;99.90;;;;;;5024269;28;20041;-74
2023/07/11 08:23:12;;;;;;;11.75;10.43;;;33.30;99.90;;;;;;5028057;28;20398;-72
2023/07/11 08:25:40;;;;;;;14.07;11.13;;;32.90;99.90;;;;;;5024451;28;20033;-71
2023/07/11 08:28:05;;;;;;;16.20;10.77;;;33.40;99.90;;;;;;5024491;28;20106;-76
2023/07/11 08:30:35;;;;;;;12.23;10.63;;;33.20;99.90;;;;;;5030419;28;20119;-75
2023/07/11 08:33:02;;;;;;;14.30;10.32;;;33.00;99.90;;;;;;5028130;28;20380;-67
2023/07/11 08:35:27;;;;;;;13.38;10.95;;;34.00;99.90;;;;;;5033592;28;20497;-66
2023/07/11 08:37:54;;;;;;;17.67;13.63;;;33.40;99.90;;;;;;5028419;28;20017;-67
2023/07/11 08:40:27;;;;;;;14.93;12.52;;;33.40;99.90;;;;;;5031946;28;20033;-82
2023/07/11 08:42:53;;;;;;;17.45;12.68;;;33.00;99.90;;;;;;5032301;28;20487;-77
2023/07/11 08:45:28;;;;;;;12.18;10.98;;;32.80;99.90;;;;;;5026318;28;20156;-66
2023/07/11 08:48:09;;;;;;;14.02;11.52;;;32.80;99.90;;;;;;5031016;28;20490;-66
2023/07/11 08:50:45;;;;;;;10.98;8.88;;;32.90;99.90;;;;;;5027345;28;20053;-76
2023/07/11 08:53:17;;;;;;;12.98;10.45;;;33.60;99.90;;;;;;5030387;28;20033;-69
2023/07/11 08:55:49;;;;;;;15.02;10.85;;;33.40;99.90;;;;;;5030529;28;20369;-73
2023/07/11 08:58:29;;;;;;;11.63;10.50;;;33.10;99.90;;;;;;5032411;28;20384;-76
2023/07/11 09:00:56;;;;;;;20.20;11.70;;;33.20;99.90;;;;;;5043833;28;20067;-69
2023/07/11 09:03:29;;;;;;;14.45;9.40;;;32.90;99.90;;;;;;5029767;28;20041;-68
2023/07/11 09:06:04;;;;;;;10.57;9.00;;;33.30;99.90;;;;;;5035446;28;20100;-72
2023/07/11 09:08:31;;;;;;;13.85;8.90;;;33.80;99.90;;;;;;5034382;28;20025;-68
2023/07/11 09:11:08;;;;;;;12.75;8.70;;;34.00;99.90;;;;;;5031318;28;20562;-67
2023/07/11 09:13:40;;;;;;;12.85;9.20;;;33.60;99.90;;;;;;5035508;28;20423;-67
2023/07/11 09:16:30;;;;;;;11.88;8.13;;;33.60;99.90;;;;;;5034464;28;20033;-67
2023/07/11 09:19:44;;;;;;;11.48;8.27;;;34.10;99.90;;;;;;5022733;28;20124;-67
2023/07/11 09:22:33;;;;;;;14.40;9.33;;;33.80;99.90;;;;;;5021332;28;20060;-67
2023/07/11 09:25:18;;;;;;;10.20;7.93;;;33.50;99.90;;;;;;5030759;28;20029;-67
2023/07/11 09:28:10;;;;;;;9.70;7.40;;;33.50;99.90;;;;;;5034526;28;20107;-65
2023/07/11 09:30:48;;;;;;;10.63;7.75;;;33.40;99.90;;;;;;5031781;28;20029;-70
2023/07/11 09:33:20;;;;;;;15.32;9.02;;;33.00;99.90;;;;;;5035212;28;20033;-60
2023/07/11 09:35:47;;;;;;;12.07;9.15;;;32.70;99.90;;;;;;5034448;28;20064;-59
2023/07/11 09:38:33;;;;;;;11.40;8.88;;;32.80;99.90;;;;;;5035629;28;20383;-59
2023/07/11 09:41:15;;;;;;;10.93;8.20;;;32.80;99.90;;;;;;5023987;28;20017;-59
2023/07/11 09:43:41;;;;;;;10.95;8.98;;;32.80;99.90;;;;;;5035174;28;20033;-59
2023/07/11 09:46:15;;;;;;;12.52;8.63;;;32.90;99.90;;;;;;5032241;28;20051;-59
2023/07/11 09:48:44;;;;;;;13.95;8.32;;;32.90;99.90;;;;;;5028752;28;21170;-59
2023/07/11 09:51:30;;;;;;;9.30;7.15;;;32.80;99.90;;;;;;5033070;28;20084;-59
2023/07/11 09:53:56;;;;;;;14.00;7.57;;;33.10;99.90;;;;;;5028038;28;20109;-59
2023/07/11 09:56:24;;;;;;;9.15;7.10;;;33.00;99.90;;;;;;5025165;28;20448;-59
2023/07/11 09:58:58;;;;;;;11.63;6.80;;;33.00;99.90;;;;;;5029006;28;20411;-59
2023/07/11 10:01:33;;;;;;;11.48;7.80;;;33.20;99.90;;;;;;5034182;28;20052;-59
2023/07/11 10:04:00;;;;;;;11.90;7.57;;;33.30;99.90;;;;;;5031179;28;20042;-59
2023/07/11 10:06:41;;;;;;;13.95;6.93;;;33.20;99.90;;;;;;5035094;28;20049;-59
2023/07/11 10:09:28;;;;;;;12.57;7.55;;;33.70;99.90;;;;;;5034074;28;20029;-59
2023/07/11 10:12:03;;;;;;;11.80;7.03;;;33.80;99.90;;;;;;5033552;28;20053;-59
2023/07/11 10:14:58;;;;;;;10.25;6.88;;;33.70;99.90;;;;;;5030172;28;20060;-59
2023/07/11 10:17:30;;;;;;;12.73;7.95;;;34.10;99.90;;;;;;5026724;28;20060;-59
2023/07/11 10:20:00;;;;;;;11.63;8.05;;;34.10;99.90;;;;;;5032350;28;20441;-61
2023/07/11 10:22:29;;;;;;;12.30;7.20;;;34.00;99.90;;;;;;5036296;28;20021;-59
2023/07/11 10:25:01;;;;;;;12.20;7.25;;;33.60;99.90;;;;;;5034809;28;20032;-59
2023/07/11 10:27:31;;;;;;;9.95;7.20;;;34.10;99.90;;;;;;5028356;28;20087;-59
2023/07/11 10:29:59;;;;;;;11.82;7.45;;;34.30;99.90;;;;;;5033992;28;20055;-59
2023/07/11 10:32:33;;;;;;;10.95;7.03;;;34.40;99.90;;;;;;5033814;28;20035;-60
2023/07/11 10:35:00;;;;;;;;;;;34.10;99.90;;;;;;5034892;28;20029;-58
2023/07/11 10:37:26;;;;;;;13.00;8.40;;;34.30;99.90;;;;;;5030572;28;19911;-59
2023/07/11 10:39:59;;;;;;;13.07;8.35;;;34.10;99.90;;;;;;5029883;28;20422;-59
2023/07/11 10:42:59;;;;;;;10.18;7.55;;;34.20;99.90;;;;;;5033487;28;20032;-59
2023/07/11 10:45:28;;;;;;;11.02;7.32;;;34.30;99.90;;;;;;5013609;28;20046;-59
2023/07/11 10:48:06;;;;;;;11.73;8.25;;;34.40;99.90;;;;;;5031025;28;20057;-60
2023/07/11 10:50:57;;;;;;;12.43;7.75;;;34.40;99.90;;;;;;5031781;28;20029;-60
2023/07/11 10:53:42;;;;;;;13.00;6.97;;;34.20;99.90;;;;;;5035454;28;20467;-60
2023/07/11 10:56:20;;;;;;;15.20;8.00;;;34.40;99.90;;;;;;5028523;28;20020;-59
2023/07/11 10:58:46;;;;;;;13.93;7.60;;;34.60;99.90;;;;;;5033313;28;20135;-59
2023/07/11 11:01:49;;;;;;;9.43;7.68;;;34.80;99.90;;;;;;5022947;28;20116;-60
2023/07/11 11:04:26;;;;;;;15.43;9.00;;;34.90;99.90;;;;;;5022755;28;20041;-60
2023/07/11 11:07:14;;;;;;;15.70;8.13;;;34.80;99.90;;;;;;5029360;28;20042;-59
2023/07/11 11:10:06;;;;;;;15.95;7.82;;;34.90;99.90;;;;;;5025793;28;20034;-60
2023/07/11 11:12:43;;;;;;;12.45;7.97;;;35.00;99.90;;;;;;5032251;28;20064;-60
2023/07/11 11:15:15;;;;;;;11.65;7.97;;;35.20;99.90;;;;;;5036738;28;20021;-61
2023/07/11 11:18:04;;;;;;;10.23;7.95;;;34.90;99.90;;;;;;5031906;28;20063;-60
2023/07/11 11:21:00;;;;;;;16.20;7.97;;;34.90;99.90;;;;;;5024279;28;20036;-60
2023/07/11 11:23:57;;;;;;;11.18;8.00;;;35.00;99.90;;;;;;5029610;28;20046;-60
2023/07/11 11:26:48;;;;;;;14.63;8.63;;;35.40;99.90;;;;;;5032334;28;20108;-60
2023/07/11 11:29:47;;;;;;;14.23;8.05;;;35.90;99.90;;;;;;5033233;28;20036;-60
2023/07/11 11:32:25;;;;;;;13.93;7.63;;;39.90;99.90;;;;;;5027126;28;20030;-60
2023/07/11 11:35:00;;;;;;;11.75;8.10;;;41.20;99.90;;;;;;5033018;28;20056;-60
2023/07/11 11:37:35;;;;;;;9.82;8.25;;;41.10;99.90;;;;;;5026599;28;20033;-61
2023/07/11 11:40:04;;;;;;;12.40;8.63;;;40.70;99.90;;;;;;5031619;28;20033;-61
2023/07/11 11:42:42;;;;;;;11.57;9.13;;;41.20;99.90;;;;;;5033268;28;20486;-60
2023/07/11 11:45:23;;;;;;;11.30;8.73;;;41.50;99.90;;;;;;5030678;28;20091;-61
2023/07/11 11:47:54;;;;;;;11.73;9.35;;;43.80;99.90;;;;;;5033629;28;20064;-61
2023/07/11 11:50:23;;;;;;;10.10;8.93;;;45.40;99.90;;;;;;5029987;28;20526;-60
2023/07/11 11:53:15;;;;;;;11.65;9.13;;;46.80;99.90;;;;;;5027212;28;20489;-59
2023/07/11 11:55:56;;;;;;;13.38;9.52;;;48.10;99.90;;;;;;5032089;28;20482;-59
2023/07/11 11:58:24;;;;;;;11.18;10.02;;;48.90;99.90;;;;;;5030205;28;20049;-59
2023/07/11 12:00:51;;;;;;;10.77;9.68;;;48.60;99.90;;;;;;5032265;28;20382;-60
2023/07/11 12:03:29;;;;;;;12.73;10.15;;;48.20;99.90;;;;;;5032844;28;20053;-60
2023/07/11 12:05:57;;;;;;;11.23;10.13;;;47.70;99.90;;;;;;5031905;28;20064;-59
2023/07/11 12:08:41;;;;;;;10.48;9.48;;;49.00;99.90;;;;;;5032011;28;20033;-60
2023/07/11 12:11:06;;;;;;;11.45;10.15;;;48.10;99.90;;;;;;5031968;28;20032;-60
2023/07/11 12:13:37;;;;;;;10.32;9.30;;;49.00;99.90;;;;;;5032144;28;20108;-60
2023/07/11 12:16:21;;;;;;;12.43;9.75;;;47.30;99.90;;;;;;5029764;28;20022;-60
2023/07/11 12:18:51;;;;;;;11.07;9.30;;;46.20;99.90;;;;;;5030351;28;20084;-60
2023/07/11 12:21:45;;;;;;;11.50;10.27;;;45.60;99.90;;;;;;5031538;28;20041;-59
2023/07/11 12:24:34;;;;;;;10.57;9.57;;;43.70;99.90;;;;;;5024479;28;20513;-59
2023/07/11 12:27:29;;;;;;;11.43;9.65;;;41.80;99.90;;;;;;5032155;28;20109;-58
2023/07/11 12:29:56;;;;;;;10.75;9.77;;;42.30;99.90;;;;;;5029608;28;20056;-58
2023/07/11 12:32:33;;;;;;;13.38;9.73;;;42.10;99.90;;;;;;5036262;28;20391;-59
2023/07/11 12:35:05;;;;;;;11.90;9.48;;;42.10;99.90;;;;;;5035447;28;20025;-60
2023/07/11 12:37:55;;;;;;;11.73;10.02;;;42.50;99.90;;;;;;5034878;28;20419;-60
2023/07/11 12:40:22;;;;;;;10.40;9.40;;;44.40;99.90;;;;;;5036364;28;20029;-60
2023/07/11 12:42:51;;;;;;;12.32;9.05;;;44.80;99.90;;;;;;5035491;28;20084;-60
2023/07/11 12:45:21;;;;;;;11.32;9.63;;;44.30;99.90;;;;;;5036113;28;20029;-60
2023/07/11 12:47:52;;;;;;;11.52;9.50;;;43.40;99.90;;;;;;5035308;28;20490;-60